createdAt,value
2018-09-11T00:02:24.528Z,16.80
2018-09-11T00:04:53.430Z,16.80
2018-09-11T00:07:22.520Z,16.80
2018-09-11T00:09:51.327Z,16.80
2018-09-11T00:12:19.938Z,16.80
2018-09-11T00:14:48.562Z,16.80
2018-09-11T00:17:17.480Z,16.80
2018-09-11T00:19:46.250Z,16.80
2018-09-11T00:22:14.808Z,16.80
2018-09-11T00:24:43.287Z,16.70
2018-09-11T00:27:11.842Z,16.70
2018-09-11T00:29:41.190Z,16.80
2018-09-11T00:32:10.842Z,16.70
2018-09-11T00:34:39.298Z,16.70
2018-09-11T00:37:08.078Z,16.70
2018-09-11T00:39:37.744Z,16.70
2018-09-11T00:42:06.267Z,16.70
2018-09-11T00:44:34.725Z,16.70
2018-09-11T00:47:03.316Z,16.70
2018-09-11T00:49:32.048Z,16.70
2018-09-11T00:52:00.849Z,16.60
2018-09-11T00:54:29.322Z,16.60
2018-09-11T00:56:57.950Z,16.60
2018-09-11T00:59:26.459Z,16.60
2018-09-11T01:01:55.622Z,16.50
2018-09-11T01:04:24.270Z,16.50
2018-09-11T01:06:53.269Z,16.50
2018-09-11T01:09:22.598Z,16.40
2018-09-11T01:11:51.456Z,16.40
2018-09-11T01:14:20.994Z,16.30
2018-09-11T01:16:50.016Z,16.30
2018-09-11T01:19:18.544Z,16.30
2018-09-11T01:21:47.771Z,16.30
2018-09-11T01:24:16.384Z,16.20
2018-09-11T01:26:44.931Z,16.20
2018-09-11T01:29:13.824Z,16.20
2018-09-11T01:31:43.642Z,16.20
2018-09-11T01:34:12.308Z,16.20
2018-09-11T01:36:40.956Z,16.20
2018-09-11T01:39:12.832Z,16.10
2018-09-11T01:41:41.942Z,16.10
2018-09-11T01:44:11.250Z,16.00
2018-09-11T01:46:40.451Z,15.80
2018-09-11T01:49:09.046Z,15.80
2018-09-11T01:51:37.717Z,15.80
2018-09-11T01:54:06.374Z,15.80
2018-09-11T01:56:35.004Z,15.80
2018-09-11T01:59:03.737Z,15.80
2018-09-11T02:01:33.039Z,15.80
2018-09-11T02:04:01.698Z,15.90
2018-09-11T02:06:30.221Z,15.80
2018-09-11T02:09:13.281Z,15.80
2018-09-11T02:11:41.815Z,15.80
2018-09-11T02:14:10.399Z,15.80
2018-09-11T02:16:38.920Z,15.80
2018-09-11T02:19:07.529Z,15.80
2018-09-11T02:21:36.002Z,15.70
2018-09-11T02:24:04.523Z,15.70
2018-09-11T02:26:33.235Z,15.70
2018-09-11T02:29:01.854Z,15.60
2018-09-11T02:31:30.361Z,15.60
2018-09-11T02:33:59.192Z,15.60
2018-09-11T02:36:27.867Z,15.50
2018-09-11T02:38:56.386Z,15.50
2018-09-11T02:41:25.477Z,15.50
2018-09-11T02:43:54.017Z,15.50
2018-09-11T02:46:22.589Z,15.40
2018-09-11T02:48:51.196Z,15.40
2018-09-11T02:51:19.866Z,15.40
2018-09-11T02:53:48.510Z,15.30
2018-09-11T02:56:17.845Z,15.30
2018-09-11T02:58:46.699Z,15.20
2018-09-11T03:01:15.585Z,15.20
2018-09-11T03:03:44.532Z,15.20
2018-09-11T03:06:13.779Z,15.20
2018-09-11T03:08:42.753Z,15.20
2018-09-11T03:11:12.168Z,15.20
2018-09-11T03:13:41.809Z,15.20
2018-09-11T03:16:10.809Z,15.20
2018-09-11T03:18:39.646Z,15.20
2018-09-11T03:21:08.611Z,15.20
2018-09-11T03:23:37.511Z,15.30
2018-09-11T03:26:06.812Z,15.20
2018-09-11T03:28:36.109Z,15.20
2018-09-11T03:31:05.227Z,15.20
2018-09-11T03:33:34.125Z,15.20
2018-09-11T03:36:02.977Z,15.20
2018-09-11T03:38:31.830Z,15.20
2018-09-11T03:41:00.683Z,15.20
2018-09-11T03:43:29.921Z,15.20
2018-09-11T03:45:58.799Z,15.20
2018-09-11T03:48:27.731Z,15.20
2018-09-11T03:50:56.495Z,15.10
2018-09-11T03:53:25.433Z,15.00
2018-09-11T03:55:54.269Z,15.00
2018-09-11T03:58:23.072Z,15.00
2018-09-11T04:00:51.934Z,14.90
2018-09-11T04:03:21.137Z,14.90
2018-09-11T04:05:50.005Z,14.90
2018-09-11T04:08:18.871Z,14.90
2018-09-11T04:10:47.804Z,14.90
2018-09-11T04:13:16.709Z,15.00
2018-09-11T04:15:45.495Z,15.00
2018-09-11T04:18:14.707Z,14.90
2018-09-11T04:20:44.041Z,14.80
2018-09-11T04:23:12.961Z,14.80
2018-09-11T04:25:42.074Z,14.80
2018-09-11T04:28:10.858Z,14.80
2018-09-11T04:30:39.823Z,14.70
2018-09-11T04:33:08.621Z,14.80
2018-09-11T04:35:38.265Z,14.70
2018-09-11T04:38:07.537Z,14.70
2018-09-11T04:40:37.049Z,14.70
2018-09-11T04:43:06.210Z,14.60
2018-09-11T04:45:35.031Z,14.60
2018-09-11T04:48:04.069Z,14.60
2018-09-11T04:50:32.894Z,14.60
2018-09-11T04:53:01.939Z,14.60
2018-09-11T04:55:30.825Z,14.60
2018-09-11T04:57:59.797Z,14.60
2018-09-11T05:00:28.675Z,14.60
2018-09-11T05:03:02.554Z,14.60
2018-09-11T05:05:31.361Z,14.60
2018-09-11T05:08:00.284Z,14.60
2018-09-11T05:10:29.189Z,14.60
2018-09-11T05:13:04.009Z,14.70
2018-09-11T05:15:32.984Z,14.70
2018-09-11T05:18:01.930Z,14.70
2018-09-11T05:20:30.812Z,14.80
2018-09-11T05:22:59.709Z,14.80
2018-09-11T05:25:28.520Z,14.90
2018-09-11T05:27:57.745Z,15.10
2018-09-11T05:30:27.578Z,15.20
2018-09-11T05:32:56.429Z,15.40
2018-09-11T05:35:25.239Z,15.50
2018-09-11T05:37:54.681Z,15.60
2018-09-11T05:40:23.729Z,15.80
2018-09-11T05:42:52.639Z,15.90
2018-09-11T05:45:22.487Z,16.10
2018-09-11T05:47:55.391Z,16.20
2018-09-11T05:50:25.303Z,16.30
2018-09-11T05:53:23.029Z,16.40
2018-09-11T05:55:52.041Z,16.50
2018-09-11T05:58:21.020Z,16.70
2018-09-11T06:00:49.799Z,16.90
2018-09-11T06:03:18.753Z,17.20
2018-09-11T06:05:48.003Z,17.50
2018-09-11T06:08:20.641Z,17.70
2018-09-11T06:10:49.421Z,17.90
2018-09-11T06:13:18.463Z,18.00
2018-09-11T06:15:47.699Z,18.20
2018-09-11T06:18:16.503Z,18.50
2018-09-11T06:20:45.529Z,18.70
2018-09-11T06:23:14.563Z,19.10
2018-09-11T06:25:43.560Z,19.30
2018-09-11T06:28:12.283Z,19.60
2018-09-11T06:30:41.232Z,19.70
2018-09-11T06:33:10.251Z,19.80
2018-09-11T06:35:39.088Z,19.90
2018-09-11T06:38:07.989Z,20.00
2018-09-11T06:40:37.000Z,20.20
2018-09-11T06:43:06.009Z,20.20
2018-09-11T06:45:34.896Z,20.30
2018-09-11T06:48:04.777Z,20.40
2018-09-11T06:50:33.723Z,20.50
2018-09-11T06:53:07.099Z,20.60
2018-09-11T06:55:44.728Z,20.80
2018-09-11T06:58:13.627Z,20.80
2018-09-11T07:00:44.712Z,20.80
2018-09-11T07:03:13.509Z,20.90
2018-09-11T07:05:42.289Z,20.90
2018-09-11T07:08:11.149Z,20.90
2018-09-11T07:10:40.032Z,20.90
2018-09-11T07:13:09.121Z,20.80
2018-09-11T07:15:39.210Z,20.80
2018-09-11T07:18:08.154Z,20.80
2018-09-11T07:20:37.042Z,20.80
2018-09-11T07:23:06.451Z,20.80
2018-09-11T07:25:35.340Z,20.90
2018-09-11T07:28:04.206Z,21.10
2018-09-11T07:30:33.097Z,21.30
2018-09-11T07:33:01.949Z,21.40
2018-09-11T07:35:30.934Z,21.40
2018-09-11T07:38:00.015Z,21.30
2018-09-11T07:40:28.671Z,21.20
2018-09-11T07:42:57.568Z,21.30
2018-09-11T07:45:26.447Z,21.30
2018-09-11T07:47:55.271Z,21.30
2018-09-11T07:50:24.291Z,21.40
2018-09-11T07:52:53.241Z,21.60
2018-09-11T07:55:32.859Z,21.70
2018-09-11T07:58:02.029Z,21.80
2018-09-11T08:00:30.952Z,21.90
2018-09-11T08:02:59.918Z,21.90
2018-09-11T08:05:28.754Z,21.90
2018-09-11T08:07:57.599Z,22.00
2018-09-11T08:10:26.580Z,22.00
2018-09-11T08:12:55.881Z,21.90
2018-09-11T08:15:24.961Z,22.00
2018-09-11T08:17:55.053Z,21.90
2018-09-11T08:20:24.426Z,21.80
2018-09-11T08:22:53.359Z,22.00
2018-09-11T08:25:22.382Z,22.20
2018-09-11T08:27:51.313Z,22.50
2018-09-11T08:30:20.246Z,22.80
2018-09-11T08:32:49.156Z,23.10
2018-09-11T08:35:18.024Z,23.40
2018-09-11T08:37:46.816Z,23.50
2018-09-11T08:40:15.628Z,23.60
2018-09-11T08:42:44.474Z,23.90
2018-09-11T08:45:13.365Z,23.90
2018-09-11T08:47:43.573Z,23.80
2018-09-11T08:50:12.556Z,23.80
2018-09-11T08:52:41.508Z,23.90
2018-09-11T08:55:10.717Z,23.60
2018-09-11T08:57:39.603Z,23.50
2018-09-11T09:00:08.972Z,23.60
2018-09-11T09:02:37.888Z,23.50
2018-09-11T09:05:06.787Z,23.50
2018-09-11T09:07:35.802Z,23.50
2018-09-11T09:10:04.774Z,23.70
2018-09-11T09:12:33.734Z,23.70
2018-09-11T09:15:02.643Z,23.70
2018-09-11T09:17:35.257Z,23.90
2018-09-11T09:20:04.248Z,24.00
2018-09-11T09:22:33.069Z,24.10
2018-09-11T09:25:02.137Z,24.30
2018-09-11T09:27:31.072Z,24.40
2018-09-11T09:29:59.816Z,24.60
2018-09-11T09:32:28.708Z,24.70
2018-09-11T09:34:57.627Z,24.90
2018-09-11T09:37:26.570Z,24.70
2018-09-11T09:39:55.420Z,24.70
2018-09-11T09:42:24.292Z,24.80
2018-09-11T09:44:53.130Z,24.70
2018-09-11T09:47:21.995Z,24.80
2018-09-11T09:49:50.877Z,25.00
2018-09-11T09:52:19.918Z,25.20
2018-09-11T09:54:48.865Z,25.50
2018-09-11T09:57:17.776Z,25.50
2018-09-11T09:59:46.635Z,25.60
2018-09-11T10:02:20.897Z,25.50
2018-09-11T10:04:50.045Z,25.40
2018-09-11T10:07:19.426Z,25.30
2018-09-11T10:09:52.498Z,25.40
2018-09-11T10:12:21.428Z,25.50
2018-09-11T10:14:50.315Z,25.60
2018-09-11T10:17:19.259Z,25.70
2018-09-11T10:19:48.191Z,25.70
2018-09-11T10:22:17.042Z,25.60
2018-09-11T10:24:45.832Z,25.80
2018-09-11T10:27:14.744Z,26.00
2018-09-11T10:29:43.579Z,25.90
2018-09-11T10:32:12.514Z,25.80
2018-09-11T10:34:41.403Z,25.90
2018-09-11T10:37:22.937Z,26.10
2018-09-11T10:39:51.808Z,26.40
2018-09-11T10:42:20.568Z,26.60
2018-09-11T10:44:49.479Z,26.60
2018-09-11T10:47:18.213Z,26.50
2018-09-11T10:49:47.339Z,26.20
2018-09-11T10:52:16.265Z,26.20
2018-09-11T10:54:45.089Z,26.50
2018-09-11T10:57:14.013Z,26.70
2018-09-11T10:59:42.825Z,26.90
2018-09-11T11:02:11.739Z,26.80
2018-09-11T11:04:40.689Z,26.70
2018-09-11T11:07:09.623Z,26.70
2018-09-11T11:09:38.439Z,26.30
2018-09-11T11:12:07.279Z,26.30
2018-09-11T11:14:36.133Z,26.20
2018-09-11T11:17:05.096Z,26.20
2018-09-11T11:19:33.932Z,26.20
2018-09-11T11:22:02.864Z,26.20
2018-09-11T11:24:31.885Z,26.30
2018-09-11T11:27:00.794Z,26.40
2018-09-11T11:29:29.696Z,26.50
2018-09-11T11:31:58.558Z,26.20
2018-09-11T11:34:27.553Z,26.20
2018-09-11T11:36:56.656Z,26.30
2018-09-11T11:39:25.425Z,26.30
2018-09-11T11:41:54.361Z,26.40
2018-09-11T11:44:24.386Z,26.60
2018-09-11T11:47:01.015Z,26.60
2018-09-11T11:49:39.999Z,26.40
2018-09-11T11:52:08.860Z,26.40
2018-09-11T11:54:37.743Z,26.60
2018-09-11T11:57:06.653Z,26.70
2018-09-11T11:59:35.468Z,26.80
2018-09-11T12:02:04.382Z,26.80
2018-09-11T12:04:33.297Z,26.90
2018-09-11T12:07:02.294Z,27.00
2018-09-11T12:09:31.209Z,27.20
2018-09-11T12:12:00.055Z,27.50
2018-09-11T12:14:28.895Z,27.50
2018-09-11T12:16:57.793Z,27.50
2018-09-11T12:19:38.786Z,27.50
2018-09-11T12:22:07.669Z,27.70
2018-09-11T12:24:36.468Z,27.90
2018-09-11T12:27:05.543Z,28.60
2018-09-11T12:29:34.359Z,29.80
2018-09-11T12:32:03.267Z,31.70
2018-09-11T12:34:32.303Z,33.30
2018-09-11T12:37:01.189Z,33.70
2018-09-11T12:39:30.054Z,33.60
2018-09-11T12:41:58.921Z,34.40
2018-09-11T12:44:27.867Z,34.20
2018-09-11T12:46:57.238Z,34.50
2018-09-11T12:49:25.926Z,34.70
2018-09-11T12:51:54.785Z,34.90
2018-09-11T12:54:23.635Z,34.90
2018-09-11T12:56:52.440Z,34.50
2018-09-11T12:59:21.283Z,34.40
2018-09-11T13:01:50.282Z,34.30
2018-09-11T13:04:19.234Z,34.70
2018-09-11T13:06:48.256Z,35.50
2018-09-11T13:09:17.176Z,35.80
2018-09-11T13:11:45.944Z,35.80
2018-09-11T13:14:14.958Z,35.20
2018-09-11T13:16:43.853Z,34.40
2018-09-11T13:19:12.653Z,33.80
2018-09-11T13:21:41.607Z,33.70
2018-09-11T13:24:10.601Z,34.00
2018-09-11T13:26:39.563Z,33.70
2018-09-11T13:29:08.489Z,33.60
2018-09-11T13:31:37.326Z,33.80
2018-09-11T13:34:06.562Z,34.10
2018-09-11T13:36:35.498Z,34.70
2018-09-11T13:39:05.405Z,34.60
2018-09-11T13:41:34.730Z,34.30
2018-09-11T13:44:03.632Z,34.50
2018-09-11T13:46:32.636Z,34.20
2018-09-11T13:49:01.612Z,33.80
2018-09-11T13:51:30.504Z,33.10
2018-09-11T13:53:59.265Z,32.90
2018-09-11T13:56:28.084Z,32.70
2018-09-11T13:58:57.253Z,33.00
2018-09-11T14:01:26.077Z,33.20
2018-09-11T14:03:55.136Z,32.40
2018-09-11T14:06:23.971Z,31.60
2018-09-11T14:08:53.030Z,31.30
2018-09-11T14:16:18.961Z,31.60
2018-09-11T14:18:47.813Z,31.80
2018-09-11T14:21:16.560Z,31.20
2018-09-11T14:23:50.327Z,30.90
2018-09-11T14:29:12.059Z,31.50
2018-09-11T14:31:45.834Z,31.70
2018-09-11T14:34:14.441Z,31.60
2018-09-11T14:36:56.284Z,31.90
2018-09-11T14:39:24.836Z,31.70
2018-09-11T14:42:09.912Z,31.20
2018-09-11T14:44:39.449Z,31.10
2018-09-11T14:47:13.686Z,31.40
2018-09-11T14:49:42.123Z,31.40
2018-09-11T14:52:11.656Z,31.70
2018-09-11T14:54:40.353Z,31.80
2018-09-11T14:57:08.842Z,31.90
2018-09-11T14:59:37.460Z,31.60
2018-09-11T15:02:06.240Z,31.20
2018-09-11T15:04:34.748Z,31.10
2018-09-11T15:07:03.222Z,31.20
2018-09-11T15:09:31.846Z,31.40
2018-09-11T15:12:00.360Z,31.60
2018-09-11T15:14:28.826Z,31.70
2018-09-11T15:16:57.424Z,31.30
2018-09-11T15:19:26.043Z,31.30
2018-09-11T15:21:54.583Z,31.60
2018-09-11T15:24:23.112Z,31.80
2018-09-11T15:26:52.082Z,32.30
2018-09-11T15:29:20.566Z,32.40
2018-09-11T15:31:49.057Z,32.40
2018-09-11T15:34:20.869Z,32.20
2018-09-11T15:36:49.496Z,32.30
2018-09-11T15:39:18.090Z,32.40
2018-09-11T15:41:47.670Z,32.00
2018-09-11T15:44:16.171Z,32.10
2018-09-11T15:46:44.860Z,32.20
2018-09-11T15:49:13.412Z,32.00
2018-09-11T15:51:41.986Z,31.50
2018-09-11T15:54:10.834Z,31.40
2018-09-11T15:56:39.289Z,31.30
2018-09-11T15:59:08.048Z,31.60
2018-09-11T16:01:36.535Z,31.80
2018-09-11T16:04:05.186Z,32.10
2018-09-11T16:06:33.652Z,32.10
2018-09-11T16:09:02.747Z,31.50
2018-09-11T16:11:31.235Z,31.30
2018-09-11T16:13:59.900Z,31.10
2018-09-11T16:16:28.439Z,30.90
2018-09-11T16:18:57.379Z,30.70
2018-09-11T16:21:26.114Z,30.60
2018-09-11T16:23:55.431Z,30.30
2018-09-11T16:26:23.925Z,30.00
2018-09-11T16:28:52.674Z,29.70
2018-09-11T16:31:21.212Z,29.40
2018-09-11T16:33:49.686Z,29.10
2018-09-11T16:36:18.484Z,28.80
2018-09-11T16:38:47.040Z,28.70
2018-09-11T16:41:15.865Z,28.50
2018-09-11T16:43:44.419Z,28.40
2018-09-11T16:46:13.119Z,28.20
2018-09-11T16:48:41.890Z,28.20
2018-09-11T16:51:10.417Z,28.10
2018-09-11T16:53:38.887Z,28.00
2018-09-11T16:56:07.520Z,27.90
2018-09-11T16:58:36.714Z,27.70
2018-09-11T17:01:05.346Z,27.60
2018-09-11T17:03:34.138Z,27.40
2018-09-11T17:06:03.001Z,27.10
2018-09-11T17:08:32.054Z,26.90
2018-09-11T17:11:00.886Z,26.60
2018-09-11T17:13:29.674Z,26.40
2018-09-11T17:15:58.524Z,26.20
2018-09-11T17:18:27.320Z,26.00
2018-09-11T17:20:56.335Z,25.90
2018-09-11T17:23:25.106Z,25.70
2018-09-11T17:25:53.899Z,25.60
2018-09-11T17:28:22.704Z,25.40
2018-09-11T17:30:51.664Z,25.20
2018-09-11T17:33:20.504Z,25.10
2018-09-11T17:35:49.432Z,24.90
2018-09-11T17:38:19.002Z,24.80
2018-09-11T17:40:55.154Z,24.60
2018-09-11T17:43:24.241Z,24.40
2018-09-11T17:45:53.542Z,24.30
2018-09-11T17:48:22.961Z,24.00
2018-09-11T17:50:51.839Z,23.90
2018-09-11T17:53:20.731Z,23.70
2018-09-11T17:55:49.849Z,23.50
2018-09-11T17:58:18.833Z,23.40
2018-09-11T18:01:08.361Z,23.20
2018-09-11T18:03:37.205Z,23.10
2018-09-11T18:06:05.976Z,22.90
2018-09-11T18:08:35.070Z,22.70
2018-09-11T18:11:09.875Z,22.60
2018-09-11T18:13:39.014Z,22.50
2018-09-11T18:16:07.943Z,22.30
2018-09-11T18:18:36.873Z,22.20
2018-09-11T18:21:06.910Z,22.10
2018-09-11T18:23:39.545Z,22.00
2018-09-11T18:26:08.629Z,21.80
2018-09-11T18:28:38.231Z,21.70
2018-09-11T18:31:07.481Z,21.70
2018-09-11T18:33:42.537Z,21.60
2018-09-11T18:36:14.849Z,21.50
2018-09-11T18:38:43.758Z,21.40
2018-09-11T18:41:13.099Z,21.30
2018-09-11T18:43:42.015Z,21.20
2018-09-11T18:46:10.971Z,21.10
2018-09-11T18:48:39.797Z,21.00
2018-09-11T18:51:09.032Z,20.90
2018-09-11T18:53:37.853Z,20.90
2018-09-11T18:56:06.838Z,20.80
2018-09-11T18:58:35.886Z,20.60
2018-09-11T19:01:05.001Z,20.40
2018-09-11T19:03:33.908Z,20.20
2018-09-11T19:06:02.849Z,20.10
2018-09-11T19:08:31.775Z,19.90
2018-09-11T19:11:08.956Z,19.80
2018-09-11T19:13:37.808Z,19.60
2018-09-11T19:16:06.829Z,19.60
2018-09-11T19:18:35.961Z,19.50
2018-09-11T19:21:05.083Z,19.40
2018-09-11T19:23:34.384Z,19.30
2018-09-11T19:26:03.327Z,19.30
2018-09-11T19:28:32.279Z,19.20
2018-09-11T19:31:01.257Z,19.20
2018-09-11T19:33:36.238Z,19.20
2018-09-11T19:36:05.127Z,19.20
2018-09-11T19:38:34.086Z,19.10
2018-09-11T19:41:02.946Z,19.00
2018-09-11T19:43:31.773Z,18.90
2018-09-11T19:46:00.629Z,18.70
2018-09-11T19:48:29.376Z,18.40
2018-09-11T19:50:58.312Z,18.10
2018-09-11T19:53:27.267Z,17.90
2018-09-11T19:55:56.109Z,17.70
2018-09-11T19:58:25.037Z,17.50
2018-09-11T20:00:54.013Z,17.40
2018-09-11T20:03:26.551Z,17.40
2018-09-11T20:05:55.469Z,17.30
2018-09-11T20:08:24.629Z,17.20
2018-09-11T20:10:53.470Z,17.20
2018-09-11T20:13:22.321Z,17.20
2018-09-11T20:15:51.249Z,17.20
2018-09-11T20:18:20.119Z,17.20
2018-09-11T20:20:48.972Z,17.20
2018-09-11T20:23:17.782Z,17.20
2018-09-11T20:25:46.749Z,17.20
2018-09-11T20:28:15.746Z,17.20
2018-09-11T20:30:44.922Z,17.20
2018-09-11T20:33:13.746Z,17.20
2018-09-11T20:35:42.709Z,17.20
2018-09-11T20:38:11.669Z,17.20
2018-09-11T20:40:40.438Z,17.30
2018-09-11T20:43:09.447Z,17.30
2018-09-11T20:45:38.458Z,17.30
2018-09-11T20:48:14.578Z,17.40
2018-09-11T20:50:43.360Z,17.30
2018-09-11T20:53:12.308Z,17.30
2018-09-11T20:55:41.092Z,17.30
2018-09-11T20:58:10.082Z,17.30
2018-09-11T21:00:38.993Z,17.30
2018-09-11T21:03:07.919Z,17.30
2018-09-11T21:05:36.698Z,17.30
2018-09-11T21:08:05.596Z,17.30
2018-09-11T21:10:34.472Z,17.30
2018-09-11T21:13:03.741Z,17.30
2018-09-11T21:15:32.784Z,17.30
2018-09-11T21:18:01.626Z,17.20
2018-09-11T21:20:30.533Z,17.20
2018-09-11T21:22:59.501Z,17.20
2018-09-11T21:25:28.336Z,17.20
2018-09-11T21:27:57.196Z,17.20
2018-09-11T21:30:26.070Z,17.10
2018-09-11T21:32:55.530Z,17.10
2018-09-11T21:35:25.501Z,17.10
2018-09-11T21:38:02.240Z,17.10
2018-09-11T21:40:31.268Z,17.00
2018-09-11T21:43:00.091Z,17.10
2018-09-11T21:45:29.110Z,17.00
2018-09-11T21:47:57.993Z,17.00
2018-09-11T21:50:26.820Z,17.00
2018-09-11T21:52:55.832Z,17.00
2018-09-11T21:55:24.685Z,17.00
2018-09-11T21:57:53.560Z,16.90
2018-09-11T22:00:22.763Z,17.00
2018-09-11T22:02:51.743Z,17.00
2018-09-11T22:05:20.610Z,16.90
2018-09-11T22:07:49.580Z,16.90
2018-09-11T22:10:18.423Z,16.90
2018-09-11T22:12:47.221Z,16.90
2018-09-11T22:15:16.484Z,16.90
2018-09-11T22:17:45.315Z,16.80
2018-09-11T22:20:14.104Z,16.80
2018-09-11T22:22:43.087Z,16.80
2018-09-11T22:25:12.117Z,16.80
2018-09-11T22:27:40.901Z,16.80
2018-09-11T22:30:09.827Z,16.80
2018-09-11T22:32:38.933Z,16.70
2018-09-11T22:35:07.865Z,16.70
2018-09-11T22:37:36.725Z,16.70
2018-09-11T22:40:24.423Z,16.70
2018-09-11T22:42:53.353Z,16.60
2018-09-11T22:45:22.219Z,16.60
2018-09-11T22:47:51.185Z,16.60
2018-09-11T22:50:20.056Z,16.50
2018-09-11T22:52:48.928Z,16.50
2018-09-11T22:55:17.851Z,16.50
2018-09-11T22:57:46.713Z,16.50
2018-09-11T23:00:15.601Z,16.50
2018-09-11T23:02:44.460Z,16.40
2018-09-11T23:05:13.266Z,16.40
2018-09-11T23:07:42.260Z,16.40
2018-09-11T23:10:11.202Z,16.40
2018-09-11T23:12:40.109Z,16.40
2018-09-11T23:15:09.099Z,16.40
2018-09-11T23:17:38.459Z,16.30
2018-09-11T23:20:07.265Z,16.30
2018-09-11T23:22:37.028Z,16.30
2018-09-11T23:25:06.109Z,16.30
2018-09-11T23:27:35.187Z,16.20
2018-09-11T23:30:04.239Z,16.20
2018-09-11T23:32:38.995Z,16.10
2018-09-11T23:35:08.055Z,16.10
2018-09-11T23:37:37.435Z,16.00
2018-09-11T23:40:06.889Z,16.00
2018-09-11T23:42:35.703Z,16.00
2018-09-11T23:45:04.691Z,16.00
2018-09-11T23:47:33.543Z,16.00
2018-09-11T23:50:03.092Z,15.90
2018-09-11T23:52:32.121Z,15.80
2018-09-11T23:55:01.337Z,15.80
2018-09-11T23:57:30.876Z,15.80
2018-09-11T23:59:59.753Z,15.80
